Time;durP1;ratioP1;P1;durP2;ratioP2;P2;SDS_P1;SDS_P2;PMS_P1;PMS_P2;Temp;Humidity;BMP_temperature;BMP_pressure;BME280_temperature;BME280_humidity;BME280_pressure;Samples;Min_cycle;Max_cycle;Signal;HPM_P1;HPM_P2
2022/04/15 00:00:39;;;;;;;65.47;41.35;;;;;;;7.77;nan;102416.63;5052313;28;20044;-50
2022/04/15 00:03:06;;;;;;;64.93;42.83;;;;;;;7.49;nan;102365.00;5051996;28;20044;-51
2022/04/15 00:05:37;;;;;;;70.80;43.00;;;;;;;7.30;nan;102332.56;5034346;28;20445;-57
2022/04/15 00:08:04;;;;;;;71.78;44.38;;;;;;;7.85;nan;102435.91;5051992;28;20120;-51
2022/04/15 00:10:29;;;;;;;68.40;43.72;;;;;;;7.66;nan;102397.38;5052004;28;20037;-52
2022/04/15 00:12:56;;;;;;;69.38;41.83;;;;;;;7.77;nan;102435.88;5033987;28;20456;-54
2022/04/15 00:15:21;;;;;;;64.28;42.78;;;;;;;7.73;nan;102425.38;5051923;28;20485;-55
2022/04/15 00:17:46;;;;;;;60.25;40.13;;;;;;;7.37;nan;102373.66;5051755;28;20082;-50
2022/04/15 00:20:12;;;;;;;66.90;42.65;;;;;;;7.72;nan;102437.59;5051809;28;20136;-55
2022/04/15 00:22:38;;;;;;;60.10;40.63;;;;;;;7.32;nan;102367.53;5051799;28;20044;-52
2022/04/15 00:25:04;;;;;;;61.70;40.42;;;;;;;7.69;nan;102434.09;5051866;28;20486;-51
2022/04/15 00:27:29;;;;;;;62.08;41.53;;;;;;;7.48;nan;102406.03;5051728;28;20048;-51
2022/04/15 00:29:54;;;;;;;66.72;39.78;;;;;;;7.27;nan;102361.38;5052222;28;20076;-56
2022/04/15 00:32:20;;;;;;;55.35;38.20;;;;;;;7.62;nan;102434.91;5051981;28;20037;-52
2022/04/15 00:34:45;;;;;;;64.88;39.75;;;;;;;7.50;nan;102427.88;5051808;28;20033;-50
2022/04/15 00:37:10;;;;;;;60.25;40.47;;;;;;;7.22;nan;102384.94;5051826;28;20048;-50
2022/04/15 00:39:38;;;;;;;65.15;40.53;;;;;;;7.55;nan;102439.25;5051640;28;20397;-56
2022/04/15 00:42:08;;;;;;;61.83;41.40;;;;;;;7.12;nan;102364.78;5051446;28;20059;-52
2022/04/15 00:44:34;;;;;;;62.03;41.58;;;;;;;7.22;nan;102384.94;5051754;28;20043;-54
2022/04/15 00:46:59;;;;;;;69.53;44.63;;;;;;;7.53;nan;102453.22;5051532;28;20049;-52
2022/04/15 00:49:24;;;;;;;65.90;42.42;;;;;;;7.58;nan;102462.88;5050265;28;20043;-49
2022/04/15 00:51:50;;;;;;;60.78;41.65;;;;;;;7.61;nan;102457.66;5051398;28;20040;-50
2022/04/15 00:54:18;;;;;;;63.50;42.53;;;;;;;7.29;nan;102389.34;5051724;28;20059;-51
2022/04/15 00:56:44;;;;;;;60.47;42.10;;;;;;;7.21;nan;102369.19;5050174;28;20055;-51
2022/04/15 00:59:10;;;;;;;72.80;44.05;;;;;;;7.30;nan;102382.34;5050461;28;20037;-50
2022/04/15 01:01:35;;;;;;;63.25;41.13;;;;;;;7.66;nan;102447.16;5050481;28;20501;-52
2022/04/15 01:04:02;;;;;;;68.10;42.38;;;;;;;7.35;nan;102394.59;5051504;28;20037;-53
2022/04/15 01:06:30;;;;;;;59.33;39.70;;;;;;;7.62;nan;102441.03;5050213;28;20033;-54
2022/04/15 01:08:58;;;;;;;70.00;43.80;;;;;;;7.53;nan;102430.50;5051747;28;20041;-52
2022/04/15 01:11:26;;;;;;;67.80;43.97;;;;;;;7.60;nan;102448.03;5050390;28;20480;-49
2022/04/15 01:13:52;;;;;;;71.43;43.55;;;;;;;7.45;nan;102418.22;5049637;28;20108;-55
2022/04/15 01:16:20;;;;;;;75.40;44.97;;;;;;;7.30;nan;102405.91;5048945;28;20186;-53
2022/04/15 01:18:46;;;;;;;79.03;45.95;;;;;;;7.61;nan;102465.50;5049991;28;20485;-51
2022/04/15 01:21:12;;;;;;;74.53;46.13;;;;;;;7.63;nan;102455.03;5052612;28;20045;-52
2022/04/15 01:23:40;;;;;;;82.10;49.58;;;;;;;7.28;nan;102387.59;5052825;28;20487;-55
2022/04/15 01:26:06;;;;;;;80.72;48.33;;;;;;;7.67;nan;102457.69;5052768;28;20029;-51
2022/04/15 01:28:31;;;;;;;85.55;48.60;;;;;;;7.30;nan;102387.59;5053833;28;20041;-52
2022/04/15 01:30:56;;;;;;;85.82;51.15;;;;;;;7.63;nan;102453.28;5053989;28;20037;-51
2022/04/15 01:33:22;;;;;;;91.60;52.03;;;;;;;7.66;nan;102469.03;5053739;28;20056;-52
2022/04/15 01:35:47;;;;;;;85.90;50.05;;;;;;;7.24;nan;102391.03;5053779;28;20404;-56
2022/04/15 01:38:14;;;;;;;89.10;49.10;;;;;;;7.60;nan;102461.13;5052521;28;20469;-58
2022/04/15 01:40:41;;;;;;;88.20;50.17;;;;;;;7.57;nan;102460.22;5053777;28;20037;-53
2022/04/15 01:43:06;;;;;;;82.22;49.35;;;;;;;7.53;nan;102459.31;5053779;28;20033;-51
2022/04/15 01:45:31;;;;;;;80.80;47.13;;;;;;;7.44;nan;102447.94;5053726;28;20131;-52
2022/04/15 01:47:57;;;;;;;85.80;50.85;;;;;;;7.45;nan;102468.00;5052261;28;20067;-51
2022/04/15 01:50:23;;;;;;;86.68;51.05;;;;;;;7.03;nan;102397.91;5053378;28;20029;-55
2022/04/15 01:52:49;;;;;;;95.70;52.20;;;;;;;7.36;nan;102464.47;5035546;28;20053;-52
2022/04/15 01:55:14;;;;;;;96.03;52.25;;;;;;;7.33;nan;102474.03;5053568;28;20040;-49
2022/04/15 01:57:39;;;;;;;95.18;52.92;;;;;;;6.95;nan;102410.03;5053577;28;20025;-54
2022/04/15 02:00:05;;;;;;;97.07;53.63;;;;;;;7.34;nan;102489.78;5052056;28;20530;-52
2022/04/15 02:02:31;;;;;;;88.47;50.95;;;;;;;7.39;nan;102492.44;5051689;28;20087;-50
2022/04/15 02:04:56;;;;;;;89.93;52.05;;;;;;;7.46;nan;102490.72;5053108;28;20068;-54
2022/04/15 02:07:21;;;;;;;95.00;51.42;;;;;;;7.50;nan;102482.88;5052935;28;20112;-55
2022/04/15 02:09:47;;;;;;;96.75;51.58;;;;;;;7.21;nan;102425.06;5053386;28;20060;-54
2022/04/15 02:12:12;;;;;;;109.22;53.78;;;;;;;7.60;nan;102483.81;5053287;28;20032;-54
2022/04/15 02:14:37;;;;;;;110.25;55.67;;;;;;;7.69;nan;102484.75;5053091;28;20071;-54
2022/04/15 02:17:03;;;;;;;116.82;58.13;;;;;;;7.38;nan;102426.94;5052978;28;20037;-51
2022/04/15 02:19:28;;;;;;;116.50;56.17;;;;;;;7.78;nan;102489.19;5052924;28;20033;-55
2022/04/15 02:21:54;;;;;;;109.75;55.17;;;;;;;7.50;nan;102430.47;5052811;28;20041;-51
2022/04/15 02:24:19;;;;;;;117.40;53.00;;;;;;;7.38;nan;102420.81;5052992;28;20033;-51
2022/04/15 02:26:44;;;;;;;105.80;53.40;;;;;;;7.86;nan;102488.34;5052752;28;20140;-50
2022/04/15 02:29:10;;;;;;;91.57;50.25;;;;;;;7.47;nan;102434.84;5052863;28;20116;-50
2022/04/15 02:31:36;;;;;;;90.25;49.63;;;;;;;7.40;nan;102428.69;5052703;28;20033;-51
2022/04/15 02:34:01;;;;;;;88.38;50.58;;;;;;;7.67;nan;102490.88;5051362;28;20503;-51
2022/04/15 02:36:26;;;;;;;99.70;51.25;;;;;;;7.65;nan;102497.81;5051290;28;20044;-52
2022/04/15 02:38:52;;;;;;;94.63;50.47;;;;;;;7.61;nan;102499.56;5052474;28;20039;-52
2022/04/15 02:41:17;;;;;;;91.53;51.85;;;;;;;7.24;nan;102434.69;5052705;28;20041;-51
2022/04/15 02:43:43;;;;;;;102.72;51.08;;;;;;;7.64;nan;102501.34;5051457;28;20068;-51
2022/04/15 02:46:09;;;;;;;93.30;51.33;;;;;;;7.31;nan;102433.88;5052219;28;20452;-52
2022/04/15 02:48:35;;;;;;;97.15;53.38;;;;;;;7.69;nan;102503.13;5052319;28;20520;-49
2022/04/15 02:51:01;;;;;;;92.18;52.67;;;;;;;7.72;nan;102497.00;5052212;28;20115;-50
2022/04/15 02:53:27;;;;;;;91.13;50.88;;;;;;;7.78;nan;102507.53;5050970;28;20410;-50
2022/04/15 02:55:53;;;;;;;98.45;52.25;;;;;;;7.45;nan;102439.19;5052120;28;20040;-50
2022/04/15 02:58:19;;;;;;;87.70;47.83;;;;;;;7.48;nan;102450.56;5051995;28;20029;-51
2022/04/15 03:00:44;;;;;;;92.20;50.08;;;;;;;7.83;nan;102505.78;5052220;28;20087;-51
2022/04/15 03:03:11;;;;;;;91.13;48.88;;;;;;;7.58;nan;102462.00;5052002;28;20037;-52
2022/04/15 03:05:37;;;;;;;85.00;46.83;;;;;;;7.44;nan;102440.06;5052017;28;20033;-52
2022/04/15 03:08:02;;;;;;;96.75;51.97;;;;;;;7.62;nan;102461.13;5052119;28;20055;-52
2022/04/15 03:10:27;;;;;;;94.95;50.58;;;;;;;8.00;nan;102512.00;5052615;28;20036;-55
2022/04/15 03:12:53;;;;;;;82.38;47.80;;;;;;;8.01;nan;102510.25;5052271;28;20037;-50
2022/04/15 03:15:18;;;;;;;85.63;47.63;;;;;;;8.05;nan;102512.91;5051683;28;20492;-51
2022/04/15 03:17:44;;;;;;;85.43;47.33;;;;;;;8.10;nan;102519.06;5051758;28;20128;-53
2022/04/15 03:20:10;;;;;;;82.25;47.53;;;;;;;8.06;nan;102513.78;5050335;28;20035;-50
2022/04/15 03:22:40;;;;;;;81.03;45.70;;;;;;;7.77;nan;102456.84;5052029;28;20075;-50
2022/04/15 03:25:07;;;;;;;73.60;42.33;;;;;;;7.54;nan;102413.03;5050378;28;20120;-50
2022/04/15 03:27:33;;;;;;;73.15;42.95;;;;;;;7.89;nan;102466.50;5051665;28;20033;-51
2022/04/15 03:29:58;;;;;;;68.97;40.67;;;;;;;7.86;nan;102462.13;5050216;28;20089;-50
2022/04/15 03:32:24;;;;;;;68.22;40.83;;;;;;;7.83;nan;102450.75;5050406;28;20044;-49
2022/04/15 03:34:53;;;;;;;61.92;37.45;;;;;;;8.16;nan;102511.22;5051484;28;20025;-53
2022/04/15 03:37:19;;;;;;;60.00;36.42;;;;;;;8.29;nan;102522.69;5051782;28;20048;-54
2022/04/15 03:39:44;;;;;;;58.20;37.03;;;;;;;8.30;nan;102527.03;5050059;28;20116;-51
2022/04/15 03:42:09;;;;;;;60.75;36.22;;;;;;;8.27;nan;102532.22;5051011;28;20036;-50
2022/04/15 03:44:35;;;;;;;53.85;36.53;;;;;;;8.28;nan;102532.28;5050327;28;20037;-51
2022/04/15 03:47:00;;;;;;;56.15;35.65;;;;;;;8.23;nan;102536.59;5051417;28;20102;-53
2022/04/15 03:49:26;;;;;;;50.35;31.85;;;;;;;8.26;nan;102548.88;5051366;28;20053;-53
2022/04/15 03:51:52;;;;;;;56.50;35.00;;;;;;;8.26;nan;102533.97;5050327;28;20044;-52
2022/04/15 03:54:17;;;;;;;49.40;33.22;;;;;;;7.84;nan;102471.75;5049747;28;20111;-51
2022/04/15 03:56:42;;;;;;;50.90;33.05;;;;;;;8.22;nan;102533.97;5051399;28;20466;-48
2022/04/15 03:59:08;;;;;;;48.83;31.92;;;;;;;7.83;nan;102476.97;5051239;28;20033;-51
2022/04/15 04:01:33;;;;;;;49.45;31.80;;;;;;;7.70;nan;102470.81;5051203;28;20039;-53
2022/04/15 04:03:59;;;;;;;49.60;32.95;;;;;;;7.72;nan;102468.19;5051125;28;20045;-53
2022/04/15 04:06:24;;;;;;;49.95;33.33;;;;;;;7.62;nan;102448.00;5050995;28;20029;-55
2022/04/15 04:08:49;;;;;;;47.08;31.95;;;;;;;8.15;nan;102543.56;5051000;28;20115;-49
2022/04/15 04:11:19;;;;;;;48.20;31.80;;;;;;;8.20;nan;102551.47;5051201;28;20041;-52
2022/04/15 04:13:45;;;;;;;49.10;33.08;;;;;;;8.19;nan;102557.56;5051441;28;20029;-50
2022/04/15 04:16:11;;;;;;;47.75;31.55;;;;;;;8.11;nan;102551.41;5051101;28;20469;-50
2022/04/15 04:18:38;;;;;;;47.97;31.10;;;;;;;8.11;nan;102561.91;5050753;28;20103;-50
2022/04/15 04:21:03;;;;;;;47.75;32.05;;;;;;;7.77;nan;102496.16;5016775;28;20152;-49
2022/04/15 04:23:28;;;;;;;45.97;30.85;;;;;;;7.96;nan;102530.34;5049915;28;20120;-51
2022/04/15 04:25:54;;;;;;;44.22;30.30;;;;;;;8.05;nan;102544.38;5051042;28;20110;-49
2022/04/15 04:28:19;;;;;;;40.33;29.17;;;;;;;7.70;nan;102488.28;5050763;28;20464;-50
2022/04/15 04:30:44;;;;;;;40.92;28.92;;;;;;;8.07;nan;102557.50;5050911;28;20565;-50
2022/04/15 04:33:10;;;;;;;42.00;29.00;;;;;;;7.87;nan;102518.06;5049656;28;20044;-50
2022/04/15 04:35:37;;;;;;;42.75;28.58;;;;;;;8.06;nan;102569.72;5049715;28;20037;-48
2022/04/15 04:38:06;;;;;;;42.33;28.08;;;;;;;7.89;nan;102535.56;5051019;28;20029;-52
2022/04/15 04:40:32;;;;;;;50.10;32.15;;;;;;;7.64;nan;102496.09;5050788;28;20045;-50
2022/04/15 04:42:58;;;;;;;47.45;30.33;;;;;;;8.00;nan;102553.97;5049663;28;20033;-52
2022/04/15 04:45:24;;;;;;;41.88;29.60;;;;;;;8.09;nan;102564.50;5050955;28;20401;-52
2022/04/15 04:47:49;;;;;;;44.33;30.90;;;;;;;8.10;nan;102565.38;5049360;28;20410;-51
2022/04/15 04:50:14;;;;;;;42.58;28.42;;;;;;;8.06;nan;102563.59;5049516;28;20041;-51
2022/04/15 04:52:40;;;;;;;40.72;28.92;;;;;;;8.08;nan;102585.50;5050636;28;20454;-52
2022/04/15 04:55:07;;;;;;;47.92;30.55;;;;;;;8.12;nan;102575.00;5053329;28;20025;-56
2022/04/15 04:57:32;;;;;;;46.50;31.15;;;;;;;8.14;nan;102580.28;5054595;28;20115;-55
2022/04/15 04:59:58;;;;;;;46.20;31.95;;;;;;;7.79;nan;102515.38;5054654;28;20120;-51
2022/04/15 05:02:23;;;;;;;47.22;29.55;;;;;;;8.14;nan;102586.41;5054108;28;20461;-52
2022/04/15 05:04:49;;;;;;;51.85;33.30;;;;;;;7.76;nan;102527.63;5054739;28;20049;-52
2022/04/15 05:07:14;;;;;;;43.38;30.83;;;;;;;8.12;nan;102585.50;5054422;28;20037;-53
2022/04/15 05:09:43;;;;;;;47.72;31.90;;;;;;;7.68;nan;102513.56;5054318;28;20029;-53
2022/04/15 05:12:11;;;;;;;49.42;33.40;;;;;;;8.02;nan;102586.34;5054246;28;20033;-50
2022/04/15 05:14:37;;;;;;;54.50;33.47;;;;;;;8.11;nan;102606.50;5052838;28;20426;-55
2022/04/15 05:17:04;;;;;;;49.05;33.42;;;;;;;7.92;nan;102561.78;5054043;28;20078;-51
2022/04/15 05:19:29;;;;;;;51.83;33.72;;;;;;;8.14;nan;102598.63;5054112;28;20104;-55
2022/04/15 05:21:54;;;;;;;53.67;35.10;;;;;;;8.17;nan;102601.28;5052783;28;20037;-53
2022/04/15 05:24:20;;;;;;;48.85;32.92;;;;;;;7.81;nan;102549.50;5054063;28;20100;-52
2022/04/15 05:26:45;;;;;;;48.75;32.67;;;;;;;8.20;nan;102611.78;5053949;28;20397;-51
2022/04/15 05:29:10;;;;;;;50.78;31.83;;;;;;;7.77;nan;102543.34;5052471;28;20040;-51
2022/04/15 05:31:36;;;;;;;42.85;28.98;;;;;;;8.24;nan;102622.28;5052242;28;20029;-50
2022/04/15 05:34:02;;;;;;;40.65;28.48;;;;;;;8.26;nan;102620.53;5053787;28;20043;-52
2022/04/15 05:36:27;;;;;;;45.22;29.27;;;;;;;8.17;nan;102612.63;5053845;28;20382;-52
2022/04/15 05:38:52;;;;;;;42.53;27.95;;;;;;;8.29;nan;102632.88;5053811;28;20121;-52
2022/04/15 05:41:18;;;;;;;46.90;30.33;;;;;;;8.28;nan;102626.72;5053500;28;20382;-51
2022/04/15 05:43:43;;;;;;;43.15;30.08;;;;;;;7.92;nan;102566.16;5053541;28;20135;-54
2022/04/15 05:46:10;;;;;;;44.38;28.70;;;;;;;7.92;nan;102574.91;5053400;28;20037;-52
2022/04/15 05:48:36;;;;;;;43.85;29.05;;;;;;;8.30;nan;102645.97;5053806;28;20033;-53
2022/04/15 05:51:01;;;;;;;43.05;30.55;;;;;;;7.83;nan;102532.91;5052355;28;20287;-50
2022/04/15 05:53:26;;;;;;;47.80;30.33;;;;;;;8.44;nan;102643.41;5053086;28;20045;-50
2022/04/15 05:55:52;;;;;;;42.92;30.77;;;;;;;8.12;nan;102580.25;5053809;28;20041;-50
2022/04/15 05:58:17;;;;;;;48.92;29.92;;;;;;;8.49;nan;102639.94;5053371;28;20410;-53
2022/04/15 06:00:42;;;;;;;46.83;30.13;;;;;;;8.52;nan;102643.47;5053001;28;20037;-52
2022/04/15 06:03:08;;;;;;;46.83;31.73;;;;;;;8.22;nan;102595.19;5053445;28;20029;-54
2022/04/15 06:05:33;;;;;;;51.80;32.67;;;;;;;8.59;nan;102646.13;5051718;28;20033;-51
2022/04/15 06:07:59;;;;;;;49.70;30.92;;;;;;;8.61;nan;102648.75;5053185;28;20444;-52
2022/04/15 06:10:24;;;;;;;50.35;32.25;;;;;;;8.70;nan;102648.81;5053060;28;20323;-51
2022/04/15 06:13:09;;;;;;;51.95;33.50;;;;;;;8.33;nan;102582.13;5051750;28;20454;-50
2022/04/15 06:15:36;;;;;;;48.00;31.48;;;;;;;8.76;nan;102665.44;5053139;28;20098;-52
2022/04/15 06:18:02;;;;;;;47.80;31.25;;;;;;;8.80;nan;102654.09;5053205;28;20051;-52
2022/04/15 06:20:28;;;;;;;45.60;30.10;;;;;;;8.87;nan;102660.25;5053033;28;20036;-51
2022/04/15 06:22:53;;;;;;;35.17;25.70;;;;;;;8.87;nan;102653.22;5052898;28;20048;-49
2022/04/15 06:25:19;;;;;;;35.38;24.52;;;;;;;8.87;nan;102661.09;5052736;28;20033;-51
2022/04/15 06:27:44;;;;;;;39.03;25.90;;;;;;;8.56;nan;102608.47;5052527;28;20037;-54
2022/04/15 06:30:10;;;;;;;33.22;23.10;;;;;;;8.97;nan;102668.16;5052771;28;20474;-52
2022/04/15 06:32:36;;;;;;;29.05;22.02;;;;;;;8.66;nan;102612.91;5051475;28;20434;-52
2022/04/15 06:35:01;;;;;;;27.60;21.65;;;;;;;9.08;nan;102676.06;5051532;28;20497;-50
2022/04/15 06:37:26;;;;;;;24.48;20.67;;;;;;;9.04;nan;102687.44;5052703;28;20478;-51
2022/04/15 06:39:52;;;;;;;24.20;20.20;;;;;;;9.25;nan;102686.63;5052459;28;20069;-52
2022/04/15 06:42:21;;;;;;;26.23;20.02;;;;;;;8.99;nan;102652.38;5052446;28;20473;-49
2022/04/15 06:44:47;;;;;;;25.23;20.30;;;;;;;9.23;nan;102715.50;5051123;28;20037;-47
2022/04/15 06:47:12;;;;;;;24.52;18.73;;;;;;;9.29;nan;102706.75;5052295;28;20037;-53
2022/04/15 06:49:37;;;;;;;25.15;19.73;;;;;;;9.29;nan;102712.91;5052018;28;20048;-54
2022/04/15 06:52:03;;;;;;;21.08;17.88;;;;;;;9.24;nan;102709.38;5052297;28;20037;-53
2022/04/15 06:54:29;;;;;;;27.05;18.70;;;;;;;8.97;nan;102662.00;5052152;28;20049;-50
2022/04/15 06:56:54;;;;;;;19.67;16.80;;;;;;;9.02;nan;102648.00;5052235;28;20029;-50
2022/04/15 06:59:19;;;;;;;19.23;16.52;;;;;;;9.44;nan;102712.06;5052538;28;20393;-52
2022/04/15 07:01:46;;;;;;;21.08;17.55;;;;;;;9.41;nan;102712.94;5052245;28;20091;-54
2022/04/15 07:04:12;;;;;;;20.33;15.70;;;;;;;9.50;nan;102719.97;5052225;28;20037;-48
2022/04/15 07:06:37;;;;;;;15.70;14.13;;;;;;;9.57;nan;102730.47;5052113;28;20059;-53
2022/04/15 07:09:03;;;;;;;16.98;13.30;;;;;;;9.71;nan;102719.13;5067451;28;20025;-52
2022/04/15 07:11:28;;;;;;;13.50;12.10;;;;;;;9.55;nan;102663.88;5052004;28;20025;-52
2022/04/15 07:13:53;;;;;;;13.38;11.93;;;;;;;10.16;nan;102733.19;5052171;28;20079;-50
2022/04/15 07:16:18;;;;;;;13.48;11.13;;;;;;;10.07;nan;102672.63;5051094;28;20485;-54
2022/04/15 07:18:44;;;;;;;11.38;10.13;;;;;;;10.29;nan;102731.41;5051812;28;20493;-51
2022/04/15 07:21:11;;;;;;;11.07;10.02;;;;;;;10.24;nan;102742.84;5050589;28;20128;-50
2022/04/15 07:23:36;;;;;;;12.95;10.02;;;;;;;10.23;nan;102743.69;5051890;28;20100;-55
2022/04/15 07:26:02;;;;;;;12.75;10.40;;;;;;;10.26;nan;102751.59;5051634;28;20485;-54
2022/04/15 07:28:27;;;;;;;12.68;9.27;;;;;;;9.97;nan;102697.22;5050284;28;20041;-51
2022/04/15 07:30:53;;;;;;;11.57;9.82;;;;;;;10.33;nan;102740.19;5050532;28;20350;-49
2022/04/15 07:33:19;;;;;;;8.95;8.05;;;;;;;10.54;nan;102754.19;5051827;28;20069;-50
2022/04/15 07:35:45;;;;;;;12.68;9.63;;;;;;;10.61;nan;102771.75;5051585;28;20423;-53
2022/04/15 07:38:10;;;;;;;9.52;8.65;;;;;;;10.68;nan;102768.19;5051941;28;20048;-54
2022/04/15 07:40:36;;;;;;;9.35;8.38;;;;;;;10.81;nan;102766.41;5051382;28;20128;-51
2022/04/15 07:43:01;;;;;;;12.18;8.32;;;;;;;11.02;nan;102789.19;5051480;28;20040;-52
2022/04/15 07:45:27;;;;;;;10.98;8.73;;;;;;;11.04;nan;102748.78;5051353;28;20048;-51
2022/04/15 07:47:52;;;;;;;9.20;7.72;;;;;;;11.40;nan;102758.28;5051347;28;20058;-52
2022/04/15 07:50:25;;;;;;;8.50;6.55;;;;;;;11.62;nan;102757.25;5051321;28;20102;-51
2022/04/15 07:52:55;;;;;;;8.77;6.07;;;;;;;11.45;nan;102703.75;5051228;28;20064;-51
2022/04/15 07:55:20;;;;;;;5.78;5.18;;;;;;;11.68;nan;102774.78;5049898;28;20080;-54
2022/04/15 07:57:45;;;;;;;10.25;5.20;;;;;;;11.81;nan;102773.88;5050712;28;20041;-56
2022/04/15 08:00:11;;;;;;;8.02;4.72;;;;;;;11.80;nan;102712.31;5050324;28;20044;-55
2022/04/15 08:02:37;;;;;;;5.97;4.20;;;;;;;12.01;nan;102711.25;5032399;28;20106;-55
2022/04/15 08:05:03;;;;;;;4.80;4.00;;;;;;;12.27;nan;102780.56;5050293;28;20547;-57
2022/04/15 08:07:28;;;;;;;7.60;5.07;;;;;;;12.29;nan;102788.44;5049213;28;20051;-57
2022/04/15 08:09:53;;;;;;;5.57;3.70;;;;;;;12.47;nan;102772.44;5049485;28;20075;-53
2022/04/15 08:12:19;;;;;;;4.28;3.75;;;;;;;13.01;nan;102788.63;5048197;28;20478;-56
2022/04/15 08:14:44;;;;;;;5.03;3.92;;;;;;;12.98;nan;102800.09;5049710;28;20488;-54
2022/04/15 08:17:09;;;;;;;5.55;4.05;;;;;;;13.01;nan;102799.19;5049625;28;20370;-54
2022/04/15 08:19:35;;;;;;;9.65;4.03;;;;;;;12.50;nan;102714.31;5047662;28;20401;-54
2022/04/15 08:22:02;;;;;;;6.25;4.30;;;;;;;12.77;nan;102800.31;5031977;28;20041;-57
2022/04/15 08:24:27;;;;;;;7.80;4.43;;;;;;;12.53;nan;102805.84;5049308;28;20033;-52
2022/04/15 08:26:56;;;;;;;6.57;4.38;;;;;;;12.17;nan;102736.63;5049839;28;20091;-56
2022/04/15 08:29:22;;;;;;;5.88;4.15;;;;;;;12.98;nan;102798.34;5052857;28;20540;-60
2022/04/15 08:31:47;;;;;;;3.58;3.10;;;;;;;13.38;nan;102747.63;5053918;28;20045;-58
2022/04/15 08:34:12;;;;;;;5.40;3.58;;;;;;;14.08;nan;102758.00;5052471;28;20052;-60
2022/04/15 08:36:38;;;;;;;5.50;3.75;;;;;;;14.99;nan;102820.88;5053300;28;20047;-57
2022/04/15 08:39:04;;;;;;;4.38;3.33;;;;;;;15.46;nan;102817.28;5053062;28;20037;-55
2022/04/15 08:41:36;;;;;;;4.00;3.47;;;;;;;15.65;nan;102796.53;5052382;28;20041;-57
2022/04/15 08:44:03;;;;;;;4.72;3.13;;;;;;;15.53;nan;102810.06;5053661;28;20108;-55
2022/04/15 08:46:29;;;;;;;6.40;3.40;;;;;;;15.09;nan;102761.44;5052138;28;20409;-56
2022/04/15 08:48:55;;;;;;;3.22;2.83;;;;;;;15.80;nan;102828.03;5053711;28;20090;-57
2022/04/15 08:51:20;;;;;;;6.72;3.30;;;;;;;16.05;nan;102820.41;5052850;28;20441;-58
2022/04/15 08:53:48;;;;;;;4.80;3.50;;;;;;;15.87;nan;102834.09;5053211;28;20052;-52
2022/04/15 08:56:14;;;;;;;5.72;2.95;;;;;;;15.57;nan;102833.00;5053479;28;20041;-55
2022/04/15 08:58:40;;;;;;;6.95;3.17;;;;;;;15.23;nan;102787.69;5052195;28;20036;-57
2022/04/15 09:01:07;;;;;;;5.50;2.80;;;;;;;15.41;nan;102842.16;5052948;28;20087;-57
2022/04/15 09:03:32;;;;;;;4.20;2.88;;;;;;;14.86;nan;102848.53;5052198;28;20132;-53
2022/04/15 09:05:58;;;;;;;5.70;3.50;;;;;;;14.44;nan;102838.69;5051733;28;20123;-57
2022/04/15 09:08:25;;;;;;;6.07;3.45;;;;;;;14.20;nan;102834.63;5052636;28;20094;-58
2022/04/15 09:10:55;;;;;;;4.93;3.78;;;;;;;13.73;nan;102776.22;5052033;28;20087;-55
2022/04/15 09:13:22;;;;;;;6.68;3.70;;;;;;;14.18;nan;102846.16;5051668;28;20102;-57
2022/04/15 09:15:48;;;;;;;4.15;3.75;;;;;;;13.65;nan;102788.69;5052689;28;20090;-58
2022/04/15 09:18:36;;;;;;;3.55;3.25;;;;;;;13.88;nan;102847.47;5052349;28;20025;-55
2022/04/15 09:21:24;;;;;;;4.07;3.20;;;;;;;13.92;nan;102854.50;5052056;28;20029;-58
2022/04/15 09:23:54;;;;;;;3.85;3.38;;;;;;;14.06;nan;102841.91;5067839;28;20111;-59
2022/04/15 09:26:21;;;;;;;5.60;3.55;;;;;;;14.44;nan;102849.28;5052564;28;20486;-57
2022/04/15 09:28:48;;;;;;;4.10;3.80;;;;;;;14.72;nan;102818.75;5034662;28;20035;-58
2022/04/15 09:31:15;;;;;;;5.68;3.58;;;;;;;14.72;nan;102869.09;5052172;28;20172;-57
2022/04/15 09:33:53;;;;;;;3.70;3.05;;;;;;;15.21;nan;102794.78;5052285;28;20036;-57
2022/04/15 09:36:26;;;;;;;3.97;3.47;;;;;;;16.79;nan;102858.41;5052468;28;20025;-57
2022/04/15 09:39:04;;;;;;;3.40;3.03;;;;;;;17.12;nan;102798.97;5052433;28;20114;-57
2022/04/15 09:41:30;;;;;;;5.13;3.72;;;;;;;16.71;nan;102805.44;5051599;28;20040;-57
2022/04/15 09:44:00;;;;;;;3.63;3.13;;;;;;;16.44;nan;102818.53;5067170;28;20409;-56
2022/04/15 09:46:27;;;;;;;4.40;3.28;;;;;;;16.67;nan;102864.91;5067245;28;20040;-57
2022/04/15 09:49:09;;;;;;;3.20;2.85;;;;;;;16.44;nan;102869.91;5052048;28;20033;-57
2022/04/15 09:51:46;;;;;;;3.50;3.05;;;;;;;16.63;nan;102873.03;5052067;28;20033;-57
2022/04/15 09:54:25;;;;;;;3.85;3.05;;;;;;;16.83;nan;102860.09;5051959;28;20183;-58
2022/04/15 09:56:52;;;;;;;3.17;2.90;;;;;;;17.59;nan;102873.94;5050348;28;20041;-56
2022/04/15 09:59:22;;;;;;;4.07;2.72;;;;;;;17.21;nan;102803.16;5066023;28;20031;-58
2022/04/15 10:01:52;;;;;;;3.72;2.70;;;;;;;18.15;nan;102869.56;5051684;28;20029;-56
2022/04/15 10:04:19;;;;;;;4.18;3.08;;;;;;;18.19;nan;102826.75;5051751;28;20056;-55
2022/04/15 10:06:45;;;;;;;4.47;2.90;;;;;;;19.05;nan;102881.63;5067862;28;20126;-57
2022/04/15 10:09:14;;;;;;;5.35;3.00;;;;;;;19.41;nan;102879.47;5052857;28;20068;-57
2022/04/15 10:11:42;;;;;;;4.57;2.65;;;;;;;20.06;nan;102875.13;5051794;28;20037;-58
2022/04/15 10:14:09;;;;;;;3.30;2.47;;;;;;;20.24;nan;102857.47;5052641;28;20025;-57
2022/04/15 10:16:35;;;;;;;3.08;2.70;;;;;;;20.38;nan;102892.56;5067874;28;20493;-57
2022/04/15 10:19:01;;;;;;;3.20;2.80;;;;;;;20.82;nan;102879.13;5067722;28;20045;-56
2022/04/15 10:21:28;;;;;;;3.53;2.47;;;;;;;20.55;nan;102884.72;5068213;28;20120;-58
2022/04/15 10:23:53;;;;;;;3.33;2.50;;;;;;;20.52;nan;102882.16;5067880;28;20029;-59
2022/04/15 10:26:19;;;;;;;3.20;2.90;;;;;;;20.27;nan;102873.44;5051155;28;20086;-57
2022/04/15 10:28:46;;;;;;;2.90;2.10;;;;;;;20.98;nan;102838.25;5050830;28;20037;-58
2022/04/15 10:31:14;;;;;;;2.53;2.30;;;;;;;21.67;nan;102890.47;5052180;28;20059;-57
2022/04/15 10:33:40;;;;;;;4.18;2.78;;;;;;;20.50;nan;102845.72;5067277;28;20504;-59
2022/04/15 10:36:16;;;;;;;4.50;2.45;;;;;;;19.75;nan;102879.06;5052821;28;20119;-57
2022/04/15 10:39:06;;;;;;;3.10;2.30;;;;;;;18.88;nan;102884.91;5051201;28;20123;-57
2022/04/15 10:41:40;;;;;;;3.55;2.92;;;;;;;18.47;nan;102880.94;5052082;28;20063;-58
2022/04/15 10:44:06;;;;;;;3.28;2.60;;;;;;;18.87;nan;102832.44;5051761;28;20086;-56
2022/04/15 10:46:35;;;;;;;4.25;2.40;;;;;;;19.55;nan;102837.09;5051562;28;20037;-60
2022/04/15 10:49:01;;;;;;;4.28;2.55;;;;;;;20.00;nan;102877.16;5050993;28;20033;-58
2022/04/15 10:51:30;;;;;;;4.53;2.70;;;;;;;19.98;nan;102887.94;5052624;28;20144;-58
2022/04/15 10:54:31;;;;;;;3.72;2.33;;;;;;;20.30;nan;102875.09;5052305;28;20448;-61
2022/04/15 10:57:10;;;;;;;3.58;2.05;;;;;;;21.08;nan;102882.44;5067728;28;20033;-57
2022/04/15 11:02:21;;;;;;;2.60;2.25;;;;;;;20.94;nan;102833.09;5052447;28;20052;-56
2022/04/15 11:04:51;;;;;;;4.05;2.58;;;;;;;21.45;nan;102873.66;5052034;28;20057;-57
2022/04/15 11:07:25;;;;;;;3.92;2.45;;;;;;;20.97;nan;102830.28;5052148;28;20044;-58
2022/04/15 11:09:51;;;;;;;4.57;2.78;;;;;;;20.25;nan;102831.59;5051055;28;20029;-60
2022/04/15 11:12:35;;;;;;;2.50;2.30;;;;;;;19.98;nan;102874.56;5051562;28;20033;-57
2022/04/15 11:15:01;;;;;;;3.58;2.50;;;;;;;19.79;nan;102880.69;5051948;28;20078;-58
2022/04/15 11:17:41;;;;;;;3.17;2.45;;;;;;;20.07;nan;102835.91;5051571;28;20033;-58
2022/04/15 11:20:09;;;;;;;5.30;3.00;;;;;;;20.08;nan;102851.84;5066945;28;20033;-57
2022/04/15 11:22:42;;;;;;;2.78;2.00;;;;;;;20.28;nan;102877.84;5051349;28;20555;-57
2022/04/15 11:25:09;;;;;;;3.25;2.45;;;;;;;20.71;nan;102874.25;5066840;28;20048;-57
2022/04/15 11:27:41;;;;;;;3.40;3.10;;;;;;;20.45;nan;102827.19;5051167;28;20401;-57
2022/04/15 11:30:13;;;;;;;2.80;2.60;;;;;;;19.88;nan;102809.03;5051598;28;20116;-56
2022/04/15 11:32:53;;;;;;;2.85;2.33;;;;;;;20.91;nan;102865.34;5051572;28;20037;-54
2022/04/15 11:35:30;;;;;;;4.22;2.65;;;;;;;21.86;nan;102866.38;5051438;28;20028;-57
2022/04/15 11:37:57;;;;;;;4.72;2.75;;;;;;;22.30;nan;102874.94;5051334;28;20044;-60